Ride Results

Irish Town (01-05-1999)
Ride distance: 80.0 km

Outcomes - Irish Town (01-05-1999)
Division No. of Entries Retired / DNE Completed Withdrawn Ineligible V/O Percentage Completed
HW 8 - 8 - - - 100.00%
MW 18 - 16 - - 2 88.89%
LW 14 - 12 - - 2 85.71%
JN 3 - 3 - - - 100.00%
Totals 43 - 39 - - 4 90.70%
Results - Irish Town (01-05-1999)
No. Rider Horse Place Time Leg Speeds Total
Km/Hr
H/R bpm
Heavyweight
123 Norb Radny Pinosa Park Mikhaal 1 4:51:00 19.6, 14.2 16.49 34, 44, 57 (Avg:50)
134 Di Rayner Karumba Topaz 2 5:15:00 18.4, 12.9 15.24 39, 45, 53 (Avg:49)
144 Keith Davenport Balgownie Berk 3 6:03:00 15.1, 11.7 13.22 39, 43, 58 (Avg:50)
129 Harry O'Brien Arabika Magnificent 4 6:24:00 14.1, 11.2 12.50 25, 36, 43 (Avg:39)
140 Keiran O'Driscoll Kamaret Ayla 4 6:24:00 13.5, 11.5 12.50 30, 39, 41 (Avg:40)
122 Terry Jasper Karnell 6 6:27:00 12.1, 12.6 12.40 28, 38, 41 (Avg:39)
125 Patrick Burns Joschi 7 6:35:00 12.4, 11.8 12.15 37, 40, 53 (Avg:46)
120 Robert Burns Rushlake Georgiana 8 8:06:00 9.4, 10.3 9.88 40, 41, 52 (Avg:46)
Middleweight
114 Bill Dransfield Fawley Indigo 1 4:12:00 19.9, 18.1 19.05 32, 38, 43 (Avg:40)
111 James Lockwood Tora Jobe 1 4:12:00 19.5, 18.6 19.05 36, 41, 44 (Avg:42)
118 Murray Dalton Arak 3 5:02:00 19.5, 13.4 15.89 54, 41, 58 (Avg:49)
138 Sharon Coughlan Maralinga Saleem 4 5:56:00 16.4, 11.4 13.48 36, 41, 47 (Avg:44)
105 Anton Reid Tora Jem 5 6:03:00 15.1, 11.7 13.22 30, 39, 42 (Avg:40)
130 Kate Jenour Peringa Music 6 6:24:00 14.1, 11.2 12.50 32, 39, 44 (Avg:41)
106 Frances Overheu Rumpole 7 6:25:00 14.9, 10.7 12.47 29, 37, 43 (Avg:40)
102 Arthur Collins Scout 8 (BC) 6:48:00 12.1, 11.4 11.76 34, 36, 48 (Avg:42)
104 Liz Cullam Chimanimani 9 6:49:00 14.2, 9.9 11.74 38, 40, 45 (Avg:42)
136 Ady McIntosh Ruby Park Eastwick 10 6:54:00 12.6, 10.6 11.59 40, 47, 43 (Avg:45)
113 Maeve Dransfield Hillain Kingsley 11 6:59:00 14.0, 9.6 11.46 30, 35, 46 (Avg:40)
143 Jan Olliver Cheeky 11 6:59:00 14.0, 9.6 11.46 32, 37, 47 (Avg:42)
128 Jessie Smith Ralvon Link 13 7:05:00 12.0, 10.6 11.29 38, 36, 45 (Avg:40)
107 Ken Hobday Blue 14 7:07:00 12.4, 10.2 11.24 37, 42, 49 (Avg:45)
108 Kerry Stanley Kellyco 14 7:07:00 12.4, 10.2 11.24 41, 40, 52 (Avg:46)
109 Kathryn Bain Bawara Khibrah 16 7:25:00 11.1, 10.4 10.79 30, 38, 56 (Avg:47)
10 Glenn Dix Malibu Luck Heart Rate L2 0:00:00 11.7, 11.1 - 41, 46, 72 (Avg:59)
139 Deb Ryan Tessa Lame L1 0:00:00 16.4 - 34, 38 (Avg:38)
Lightweight
141 Heather Hawkins Shah Tarkarra 1 4:12:00 19.9, 18.1 19.05 32, 40, 44 (Avg:42)
124 Jane Radny Inez Al Nimir 2 4:51:00 19.6, 14.2 16.49 38, 47, 56 (Avg:51)
127 Carol Willcocks Tipperary Pandora 3 5:02:00 19.5, 13.4 15.89 30, 41, 46 (Avg:43)
126 Shan Symons Dashanda Sonaria 4 5:44:00 12.2, 16.2 13.95 31, 38, 54 (Avg:46)
142 Joanna McCord Leedale Jadea 5 6:24:00 17.3, 9.7 12.50 32, 40, 44 (Avg:42)
121 Kylie Hammond Ros Tien 6 6:27:00 12.1, 12.6 12.40 41, 43, 47 (Avg:45)
117 Jan Andrews Kadova Spellbound 7 6:31:00 13.3, 11.3 12.28 32, 34, 43 (Avg:38)
110 Lorna Chalmers Jessie 8 6:48:00 11.1, 12.4 11.76 37, 37, 45 (Avg:41)
137 Amanda Rayner Ruby Park Clewyyd 9 6:54:00 12.6, 10.6 11.59 35, 36, 42 (Avg:39)
131 Tegan Symington Arabika Nayola 10 7:05:00 12.0, 10.6 11.29 37, 44, 58 (Avg:51)
115 Faye Crockford Rabiana Summer Rain 11 7:25:00 13.9, 8.7 10.79 36, 45, 54 (Avg:49)
119 Miriam Burns Maralinga Du'baye 12 8:06:00 9.4, 10.3 9.88 36, 38, 40 (Avg:39)
116 June Shaw Rajah Heart Rate L2 0:00:00 13.3, 1.6 - 35, 40, 61 (Avg:50)
135 Kerryn Willing Nangita Morning Mist Gall or injury L1 0:00:00 12.1 - 38, 40 (Avg:40)
Junior
112 Megan Yearbury September Rayne 1 5:02:00 19.5, 13.4 15.89 36, 44, 52 (Avg:48)
132 Patrick Daly Yaldon Gwai Sadiiq 2 7:05:00 13.1, 9.9 11.29 31, 38, 59 (Avg:48)
133 David Riches Tomahl Asaad 2 7:05:00 13.1, 9.9 11.29 35, 40, 48 (Avg:44)